Time;durP1;ratioP1;P1;durP2;ratioP2;P2;SDS_P1;SDS_P2;PMS_P1;PMS_P2;Temp;Humidity;BMP_temperature;BMP_pressure;BME280_temperature;BME280_humidity;BME280_pressure;Samples;Min_cycle;Max_cycle;Signal;HPM_P1;HPM_P2
2021/03/21 00:00:49;;;;;;;23.53;10.63;;;-3.00;99.90;;;;;;5037333;28;20218;-88
2021/03/21 00:03:17;;;;;;;21.90;10.37;;;-2.20;99.90;;;;;;5046108;28;20268;-87
2021/03/21 00:05:43;;;;;;;22.53;11.33;;;-3.80;99.90;;;;;;5044782;28;20181;-88
2021/03/21 00:08:23;;;;;;;24.63;10.80;;;-3.80;99.90;;;;;;5041716;28;20591;-87
2021/03/21 00:10:54;;;;;;;28.57;10.80;;;-3.90;99.90;;;;;;5038967;28;20540;-90
2021/03/21 00:13:21;;;;;;;23.63;10.70;;;-3.90;99.90;;;;;;5035270;28;20570;-91
2021/03/21 00:15:48;;;;;;;23.90;10.63;;;-2.60;99.90;;;;;;5036466;28;20215;-90
2021/03/21 00:18:15;;;;;;;22.27;10.07;;;-4.00;99.90;;;;;;5036227;28;20192;-85
2021/03/21 00:20:41;;;;;;;20.90;10.43;;;-4.00;99.90;;;;;;5035139;28;20181;-90
2021/03/21 00:23:08;;;;;;;24.40;10.17;;;-3.90;99.90;;;;;;5034815;28;20183;-91
2021/03/21 00:25:35;;;;;;;24.27;11.60;;;-3.90;99.90;;;;;;5034794;28;20207;-90
2021/03/21 00:28:04;;;;;;;26.27;11.43;;;-3.90;99.90;;;;;;5036294;28;20177;-90
2021/03/21 00:30:34;;;;;;;21.83;10.47;;;-4.00;99.90;;;;;;5035986;28;20177;-90
2021/03/21 00:33:01;;;;;;;20.37;10.13;;;-4.00;99.90;;;;;;5036316;28;20172;-91
2021/03/21 00:35:27;;;;;;;27.90;11.00;;;-4.00;99.90;;;;;;5034453;28;20202;-92
2021/03/21 00:37:55;;;;;;;23.57;11.03;;;-4.00;99.90;;;;;;5035168;28;20186;-91
2021/03/21 00:40:22;;;;;;;25.07;10.87;;;-4.00;99.90;;;;;;5034845;28;20270;-91
2021/03/21 00:42:48;;;;;;;26.93;11.73;;;-4.00;99.90;;;;;;5036255;28;20200;-91
2021/03/21 00:45:16;;;;;;;22.57;10.83;;;-2.90;99.90;;;;;;5036191;28;20631;-91
2021/03/21 00:47:42;;;;;;;24.83;9.97;;;-4.00;99.90;;;;;;5034139;28;20186;-90
2021/03/21 00:50:11;;;;;;;20.43;9.80;;;-4.00;99.90;;;;;;5034731;28;20262;-90
2021/03/21 00:52:37;;;;;;;20.60;7.47;;;-4.00;99.90;;;;;;5035633;28;20176;-92
2021/03/21 00:55:04;;;;;;;23.63;10.83;;;-4.00;99.90;;;;;;5035982;28;20285;-91
2021/03/21 00:57:30;;;;;;;24.50;10.20;;;-4.00;99.90;;;;;;5034296;28;20217;-90
2021/03/21 00:59:56;;;;;;;26.07;12.33;;;-4.10;99.90;;;;;;5034796;28;20192;-91
2021/03/21 01:02:21;;;;;;;28.77;13.20;;;-4.00;99.90;;;;;;5034288;28;20563;-91
2021/03/21 01:04:49;;;;;;;27.17;12.40;;;-4.00;99.90;;;;;;5034324;28;20243;-91
2021/03/21 01:07:15;;;;;;;29.97;11.60;;;-4.00;99.90;;;;;;5034646;28;20621;-91
2021/03/21 01:09:41;;;;;;;23.00;10.50;;;-4.10;99.90;;;;;;5034222;28;20189;-91
2021/03/21 01:12:07;;;;;;;30.37;12.27;;;-4.10;99.90;;;;;;5035624;28;20233;-92
2021/03/21 01:14:33;;;;;;;18.50;9.47;;;-4.10;99.90;;;;;;5034204;28;20645;-90
2021/03/21 01:16:58;;;;;;;31.93;13.00;;;-2.30;99.90;;;;;;5018265;28;20208;-92
2021/03/21 01:19:24;;;;;;;29.20;12.50;;;-4.10;99.90;;;;;;5034275;28;20210;-91
2021/03/21 01:21:50;;;;;;;32.07;12.17;;;-2.70;99.90;;;;;;5018051;28;20194;-91
2021/03/21 01:24:20;;;;;;;25.17;11.90;;;-4.10;99.90;;;;;;5018196;28;20203;-91
2021/03/21 01:26:47;;;;;;;33.43;12.43;;;-4.00;99.90;;;;;;5034099;28;20176;-90
2021/03/21 01:29:12;;;;;;;23.80;11.20;;;-4.00;99.90;;;;;;5034225;28;20274;-90
2021/03/21 01:31:38;;;;;;;27.60;12.03;;;-3.10;99.90;;;;;;5033785;28;20626;-91
2021/03/21 01:34:04;;;;;;;26.40;12.17;;;-3.30;99.90;;;;;;5035327;28;20679;-90
2021/03/21 01:36:33;;;;;;;29.17;13.40;;;-3.70;99.90;;;;;;5034775;28;20575;-89
2021/03/21 01:39:02;;;;;;;32.17;12.80;;;-4.00;99.90;;;;;;5033701;28;20219;-90
2021/03/21 01:41:32;;;;;;;37.13;14.30;;;-4.00;99.90;;;;;;5033447;28;20271;-91
2021/03/21 01:43:58;;;;;;;29.47;12.60;;;-2.40;99.90;;;;;;5033615;28;20242;-90
2021/03/21 01:46:53;;;;;;;29.27;12.43;;;-4.00;99.90;;;;;;5034700;28;20184;-86
2021/03/21 01:49:29;;;;;;;28.53;12.17;;;-4.00;99.90;;;;;;5034801;28;20169;-89
2021/03/21 01:51:58;;;;;;;23.20;10.50;;;-4.10;99.90;;;;;;5035177;28;20711;-90
2021/03/21 01:54:25;;;;;;;30.97;13.67;;;-4.10;99.90;;;;;;5035036;28;20275;-90
2021/03/21 01:56:51;;;;;;;29.87;11.03;;;-4.00;99.90;;;;;;5034706;28;20212;-90
2021/03/21 01:59:27;;;;;;;34.77;13.20;;;-4.10;99.90;;;;;;5033041;28;20192;-92
2021/03/21 02:01:57;;;;;;;28.53;12.83;;;-4.10;99.90;;;;;;5033623;28;20234;-91
2021/03/21 02:04:23;;;;;;;24.93;11.77;;;-4.10;99.90;;;;;;5034667;28;20228;-91
2021/03/21 02:06:58;;;;;;;27.73;13.30;;;-4.10;99.90;;;;;;5034226;28;20585;-91
2021/03/21 02:09:26;;;;;;;31.63;11.57;;;-4.10;99.90;;;;;;5034725;28;20247;-91
2021/03/21 02:12:04;;;;;;;31.67;12.63;;;-2.90;99.90;;;;;;5033132;28;20188;-90
2021/03/21 02:15:16;;;;;;;25.43;12.80;;;-4.10;99.90;;;;;;5032955;28;20234;-91
2021/03/21 02:17:54;;;;;;;30.23;12.73;;;-4.10;99.90;;;;;;5023506;28;20240;-90
2021/03/21 02:20:55;;;;;;;34.57;12.40;;;-4.10;99.90;;;;;;5034459;28;20179;-90
2021/03/21 02:23:47;;;;;;;28.30;12.27;;;-4.10;99.90;;;;;;5033017;28;20254;-90
2021/03/21 02:26:40;;;;;;;27.90;11.97;;;-4.10;99.90;;;;;;5033107;28;20208;-90
2021/03/21 02:29:32;;;;;;;27.93;11.50;;;-4.10;99.90;;;;;;5032963;28;20275;-90
2021/03/21 02:32:00;;;;;;;28.90;10.00;;;-4.10;99.90;;;;;;5033242;28;20182;-91
2021/03/21 02:34:30;;;;;;;27.13;10.83;;;-4.10;99.90;;;;;;5032756;28;20268;-90
2021/03/21 02:37:06;;;;;;;30.67;12.03;;;-4.00;99.90;;;;;;5034041;28;20661;-90
2021/03/21 02:39:47;;;;;;;24.87;11.83;;;-4.10;99.90;;;;;;5032306;28;20184;-89
2021/03/21 02:42:19;;;;;;;29.47;10.47;;;-4.10;99.90;;;;;;5032835;28;20236;-90
2021/03/21 02:44:53;;;;;;;22.10;10.27;;;-4.10;99.90;;;;;;5032214;28;20181;-90
2021/03/21 02:47:27;;;;;;;32.03;11.50;;;-4.10;99.90;;;;;;5032481;28;20267;-90
2021/03/21 02:49:57;;;;;;;30.37;12.20;;;-4.10;99.90;;;;;;5033604;28;20175;-92
2021/03/21 02:52:52;;;;;;;25.87;10.17;;;-3.00;99.90;;;;;;5033869;28;20193;-91
2021/03/21 02:55:21;;;;;;;22.53;10.00;;;-4.10;99.90;;;;;;5030898;28;20181;-90
2021/03/21 02:57:55;;;;;;;22.37;10.80;;;-2.50;99.90;;;;;;5031569;28;20225;-90
2021/03/21 03:00:25;;;;;;;34.40;12.57;;;-4.10;99.90;;;;;;5032449;28;20548;-91
2021/03/21 03:02:59;;;;;;;35.40;11.73;;;-2.80;99.90;;;;;;5032026;28;20179;-90
2021/03/21 03:05:33;;;;;;;27.97;11.70;;;-2.80;99.90;;;;;;5033915;28;20235;-89
2021/03/21 03:08:05;;;;;;;24.53;11.63;;;-4.10;99.90;;;;;;5033337;28;20166;-91
2021/03/21 03:10:39;;;;;;;30.67;11.80;;;-2.70;99.90;;;;;;5032513;28;20172;-91
2021/03/21 03:13:17;;;;;;;29.33;12.30;;;-4.10;99.90;;;;;;5033485;28;20195;-92
2021/03/21 03:15:44;;;;;;;25.03;11.53;;;-4.10;99.90;;;;;;5033170;28;20546;-91
2021/03/21 03:18:30;;;;;;;21.27;9.97;;;-4.10;99.90;;;;;;5032280;28;20192;-91
2021/03/21 03:21:24;;;;;;;18.23;9.03;;;-4.10;99.90;;;;;;5033295;28;20183;-90
2021/03/21 03:24:06;;;;;;;28.50;10.63;;;-4.10;99.90;;;;;;5031832;28;20183;-93
2021/03/21 03:26:53;;;;;;;25.07;10.63;;;-4.10;99.90;;;;;;5033820;28;20180;-93
2021/03/21 03:29:33;;;;;;;28.30;9.30;;;-4.10;99.90;;;;;;5032510;28;20183;-93
2021/03/21 03:32:01;;;;;;;17.57;8.63;;;-4.10;99.90;;;;;;5032847;28;20200;-92
2021/03/21 03:34:30;;;;;;;13.13;6.30;;;-4.10;99.90;;;;;;5033386;28;20256;-93
2021/03/21 03:36:55;;;;;;;18.20;8.40;;;-3.30;99.90;;;;;;5033180;28;20224;-94
2021/03/21 03:39:23;;;;;;;26.17;9.93;;;-4.10;99.90;;;;;;5032217;28;20684;-93
2021/03/21 03:42:27;;;;;;;15.63;8.30;;;-4.10;99.90;;;;;;5033142;28;20241;-93
2021/03/21 03:45:04;;;;;;;22.80;9.67;;;-4.10;99.90;;;;;;5001925;28;20671;-93
2021/03/21 03:47:36;;;;;;;20.17;8.20;;;-4.10;99.90;;;;;;5033758;28;20180;-92
2021/03/21 03:50:23;;;;;;;14.80;8.57;;;-4.00;99.90;;;;;;5032168;28;20190;-93
2021/03/21 03:53:12;;;;;;;22.67;8.93;;;-4.10;99.90;;;;;;5032348;28;20254;-93
2021/03/21 03:56:09;;;;;;;21.43;8.37;;;-4.10;99.90;;;;;;5033550;28;20168;-94
2021/03/21 03:59:00;;;;;;;19.47;8.37;;;-4.00;99.90;;;;;;5033154;28;20218;-95
2021/03/21 04:01:41;;;;;;;28.13;9.03;;;-4.10;99.90;;;;;;5033378;28;20669;-94
2021/03/21 04:04:30;;;;;;;13.10;7.30;;;-4.10;99.90;;;;;;5032446;28;20635;-93
2021/03/21 04:07:08;;;;;;;22.83;8.27;;;-4.10;99.90;;;;;;4998462;28;20203;-95
2021/03/21 04:09:40;;;;;;;16.77;8.83;;;-4.10;99.90;;;;;;5032262;28;20173;-94
2021/03/21 04:12:11;;;;;;;20.47;8.50;;;-4.10;99.90;;;;;;5032838;28;20184;-92
2021/03/21 04:14:41;;;;;;;19.77;8.53;;;-4.10;99.90;;;;;;5031930;28;20232;-95
2021/03/21 04:17:14;;;;;;;24.17;9.90;;;-4.10;99.90;;;;;;5033086;28;20657;-93
2021/03/21 04:19:47;;;;;;;14.90;7.53;;;-4.10;99.90;;;;;;5032871;28;20183;-94
2021/03/21 04:22:18;;;;;;;19.27;8.93;;;-4.10;99.90;;;;;;5032696;28;20291;-93
2021/03/21 04:24:56;;;;;;;18.33;8.47;;;-3.20;99.90;;;;;;5036809;28;20173;-89
2021/03/21 04:27:33;;;;;;;12.00;6.80;;;-4.10;99.90;;;;;;5036659;28;20633;-93
2021/03/21 04:30:12;;;;;;;16.57;8.10;;;-4.10;99.90;;;;;;5035095;28;20180;-94
2021/03/21 04:32:47;;;;;;;21.30;9.20;;;-4.10;99.90;;;;;;5035744;28;20318;-93
2021/03/21 04:35:27;;;;;;;23.27;9.27;;;-4.10;99.90;;;;;;5036721;28;20266;-94
2021/03/21 04:38:04;;;;;;;19.23;8.20;;;-4.10;99.90;;;;;;5035221;28;20663;-93
2021/03/21 04:40:30;;;;;;;16.10;8.60;;;-4.10;99.90;;;;;;5036751;28;20172;-93
2021/03/21 04:43:05;;;;;;;23.53;10.30;;;-4.10;99.90;;;;;;5035831;28;20272;-93
2021/03/21 04:45:35;;;;;;;20.70;10.43;;;-4.10;99.90;;;;;;5036368;28;20164;-92
2021/03/21 04:48:04;;;;;;;18.87;9.67;;;-3.00;99.90;;;;;;5035895;28;20216;-93
2021/03/21 04:50:32;;;;;;;19.53;9.77;;;-4.10;99.90;;;;;;5034970;28;20714;-90
2021/03/21 04:53:00;;;;;;;23.60;9.50;;;-4.10;99.90;;;;;;5034763;28;20191;-93
2021/03/21 04:55:54;;;;;;;18.60;8.63;;;-4.10;99.90;;;;;;5035054;28;20191;-93
2021/03/21 04:58:47;;;;;;;20.17;10.67;;;-4.10;99.90;;;;;;5031132;28;20247;-94
2021/03/21 05:01:36;;;;;;;25.20;10.87;;;-4.10;99.90;;;;;;5036175;28;20175;-93
2021/03/21 05:04:20;;;;;;;21.57;9.50;;;-4.10;99.90;;;;;;5034539;28;20263;-93
2021/03/21 05:07:01;;;;;;;17.10;8.50;;;-4.10;99.90;;;;;;5036117;28;20227;-94
2021/03/21 05:09:43;;;;;;;17.97;10.03;;;-4.10;99.90;;;;;;5035329;28;20176;-93
2021/03/21 05:12:25;;;;;;;19.90;11.57;;;-4.10;99.90;;;;;;5034667;28;20177;-93
2021/03/21 05:15:35;;;;;;;12.10;7.10;;;-4.00;99.90;;;;;;5034680;28;20179;-87
2021/03/21 05:18:31;;;;;;;24.13;11.43;;;-4.00;99.90;;;;;;5035183;28;20256;-94
2021/03/21 05:21:35;;;;;;;13.97;7.53;;;-3.90;99.90;;;;;;5034333;28;20186;-93
2021/03/21 05:24:22;;;;;;;18.53;9.80;;;-3.90;99.90;;;;;;5021976;28;20242;-93
2021/03/21 05:26:55;;;;;;;14.20;7.10;;;-3.80;99.90;;;;;;5035736;28;20227;-93
2021/03/21 05:30:11;;;;;;;16.63;7.80;;;-2.10;99.90;;;;;;5035538;28;20203;-92
2021/03/21 05:32:37;;;;;;;19.20;7.90;;;-3.70;99.90;;;;;;4974457;28;20178;-92
2021/03/21 05:35:05;;;;;;;21.90;8.77;;;-3.60;99.90;;;;;;4957475;28;20182;-93
2021/03/21 05:38:05;;;;;;;17.57;8.73;;;-3.60;99.90;;;;;;5008644;28;20320;-91
2021/03/21 05:41:01;;;;;;;24.20;10.13;;;-3.50;99.90;;;;;;5035172;28;20187;-93
2021/03/21 05:43:32;;;;;;;18.53;8.33;;;-3.40;99.90;;;;;;5035851;28;20621;-95
2021/03/21 05:46:14;;;;;;;23.27;10.10;;;-3.40;99.90;;;;;;5035587;28;20181;-94
2021/03/21 05:49:00;;;;;;;16.77;7.63;;;-3.40;99.90;;;;;;5034554;28;20176;-94
2021/03/21 05:51:53;;;;;;;18.97;8.43;;;-1.30;99.90;;;;;;5035294;28;20168;-95
2021/03/21 05:54:43;;;;;;;16.97;7.30;;;-2.40;99.90;;;;;;4989172;28;20228;-94
2021/03/21 05:57:34;;;;;;;18.33;9.57;;;-3.00;99.90;;;;;;5029080;28;20545;-95
2021/03/21 06:00:21;;;;;;;18.23;8.47;;;-3.00;99.90;;;;;;5042278;28;20190;-92
2021/03/21 06:03:17;;;;;;;23.93;10.10;;;-3.00;99.90;;;;;;5031798;28;20185;-93
2021/03/21 06:05:42;;;;;;;19.80;9.77;;;-2.10;99.90;;;;;;5032933;28;20679;-93
2021/03/21 06:08:20;;;;;;;24.07;9.60;;;-2.90;99.90;;;;;;5032541;28;20180;-96
2021/03/21 06:11:01;;;;;;;17.17;8.93;;;-2.90;99.90;;;;;;5045598;28;20271;-93
2021/03/21 06:14:17;;;;;;;18.27;8.20;;;-2.80;99.90;;;;;;5032183;28;20181;-94
2021/03/21 06:17:11;;;;;;;22.27;9.17;;;-2.70;99.90;;;;;;5015131;28;20212;-92
2021/03/21 06:20:02;;;;;;;25.87;9.73;;;-2.70;99.90;;;;;;5044753;28;20587;-92
2021/03/21 06:22:50;;;;;;;19.23;7.60;;;-2.80;99.90;;;;;;5031977;28;20186;-90
2021/03/21 06:25:53;;;;;;;28.57;11.30;;;-2.60;99.90;;;;;;5047093;28;20410;-92
2021/03/21 06:28:32;;;;;;;16.27;8.23;;;-2.60;99.90;;;;;;5028555;28;20190;-92
2021/03/21 06:31:26;;;;;;;22.87;10.03;;;-1.10;99.90;;;;;;5046320;28;20192;-90
2021/03/21 06:34:22;;;;;;;23.50;9.80;;;-2.70;99.90;;;;;;5032411;28;20532;-93
2021/03/21 06:37:00;;;;;;;19.37;8.93;;;-1.70;99.90;;;;;;5055133;28;20200;-86
2021/03/21 06:39:38;;;;;;;19.63;8.33;;;-2.60;99.90;;;;;;5061038;28;20192;-88
2021/03/21 06:42:27;;;;;;;19.37;10.23;;;-2.50;99.90;;;;;;5039466;28;20200;-90
2021/03/21 06:45:05;;;;;;;29.83;11.43;;;-2.40;99.90;;;;;;5033672;28;20288;-90
2021/03/21 06:47:43;;;;;;;25.80;11.00;;;-2.30;99.90;;;;;;5036609;28;20193;-88
2021/03/21 06:50:08;;;;;;;20.77;8.80;;;-2.20;99.50;;;;;;5052747;28;20230;-87
2021/03/21 06:52:50;;;;;;;22.77;9.93;;;-0.60;98.90;;;;;;5067138;28;20194;-87
2021/03/21 06:55:39;;;;;;;23.13;9.03;;;-0.90;98.10;;;;;;5069231;28;20184;-86
2021/03/21 06:58:14;;;;;;;21.77;10.00;;;-2.10;96.70;;;;;;5040505;28;20184;-87
2021/03/21 07:00:55;;;;;;;30.50;12.70;;;0.20;97.50;;;;;;5036701;28;20188;-90
2021/03/21 07:03:42;;;;;;;33.10;12.13;;;-1.90;96.50;;;;;;5028608;28;20189;-93
2021/03/21 07:06:56;;;;;;;27.43;12.53;;;-1.90;95.10;;;;;;5049652;28;20184;-86
2021/03/21 07:09:40;;;;;;;22.77;11.53;;;-1.80;94.40;;;;;;5051010;28;20228;-88
2021/03/21 07:12:45;;;;;;;23.23;10.63;;;-1.60;93.50;;;;;;5047302;28;20188;-85
2021/03/21 07:15:16;;;;;;;23.37;10.57;;;-1.70;92.50;;;;;;5030036;28;20213;-89
2021/03/21 07:17:53;;;;;;;26.87;11.27;;;-1.70;92.80;;;;;;5030950;28;20212;-92
2021/03/21 07:20:22;;;;;;;24.17;9.73;;;-0.70;93.30;;;;;;5029567;28;20253;-93
2021/03/21 07:23:22;;;;;;;27.50;11.60;;;-0.20;92.70;;;;;;5030136;28;20216;-90
2021/03/21 07:26:24;;;;;;;37.27;12.37;;;-1.60;92.20;;;;;;5027476;28;20691;-87
2021/03/21 07:29:20;;;;;;;22.90;10.63;;;0.00;92.80;;;;;;4952120;28;20188;-86
2021/03/21 07:32:04;;;;;;;21.73;9.77;;;-1.40;91.80;;;;;;5043227;28;20303;-87
2021/03/21 07:35:16;;;;;;;27.30;12.07;;;-1.50;90.20;;;;;;5027458;28;20640;-87
2021/03/21 07:38:12;;;;;;;31.07;13.07;;;-1.30;90.70;;;;;;4966499;28;20206;-91
2021/03/21 07:40:41;;;;;;;25.43;12.50;;;-1.20;91.70;;;;;;5030071;28;20188;-93
2021/03/21 07:43:25;;;;;;;33.63;13.43;;;-0.20;92.00;;;;;;5028873;28;20984;-88
2021/03/21 07:46:03;;;;;;;26.53;11.97;;;-1.00;98.00;;;;;;5025878;28;20283;-86
2021/03/21 07:49:00;;;;;;;26.30;12.13;;;1.00;92.20;;;;;;5028994;28;20180;-88
2021/03/21 07:51:25;;;;;;;32.87;14.83;;;-0.90;90.80;;;;;;5028699;28;20215;-86
2021/03/21 07:54:06;;;;;;;35.93;14.30;;;0.10;92.10;;;;;;5028405;28;20586;-89
2021/03/21 07:57:07;;;;;;;35.37;13.47;;;1.00;92.10;;;;;;5027279;28;20200;-91
2021/03/21 07:59:35;;;;;;;35.50;16.07;;;-0.70;90.80;;;;;;5032452;28;20213;-90
2021/03/21 08:02:01;;;;;;;28.40;13.80;;;-0.60;90.90;;;;;;5018540;28;20185;-88
2021/03/21 08:04:41;;;;;;;36.77;13.87;;;-0.50;88.80;;;;;;5033031;28;20250;-87
2021/03/21 08:07:13;;;;;;;29.30;14.80;;;-0.60;88.00;;;;;;5031329;28;20551;-86
2021/03/21 08:09:39;;;;;;;20.17;10.00;;;-0.60;88.90;;;;;;5028992;28;20186;-90
2021/03/21 08:12:11;;;;;;;37.63;15.07;;;-0.60;89.30;;;;;;5033024;28;20659;-87
2021/03/21 08:14:48;;;;;;;31.73;14.63;;;-0.60;90.40;;;;;;5030461;28;20217;-88
2021/03/21 08:17:21;;;;;;;39.50;17.03;;;-0.60;90.60;;;;;;5030150;28;20220;-86
2021/03/21 08:19:50;;;;;;;35.97;16.33;;;-0.50;90.60;;;;;;5030995;28;20189;-87
2021/03/21 08:22:21;;;;;;;40.27;20.90;;;0.60;90.50;;;;;;5032966;28;20670;-89
2021/03/21 08:24:48;;;;;;;39.40;16.33;;;0.80;91.00;;;;;;5033032;28;20268;-88
2021/03/21 08:27:24;;;;;;;35.73;15.93;;;0.70;91.30;;;;;;5032053;28;20246;-86
2021/03/21 08:29:56;;;;;;;44.37;17.53;;;-0.50;91.50;;;;;;5032185;28;20660;-87
2021/03/21 08:32:21;;;;;;;32.80;11.80;;;0.80;92.20;;;;;;5032535;28;20222;-87
2021/03/21 08:34:49;;;;;;;34.03;16.87;;;-0.60;91.20;;;;;;5032407;28;20244;-86
2021/03/21 08:37:25;;;;;;;37.33;16.23;;;-0.60;91.70;;;;;;5033744;28;20302;-85
2021/03/21 08:40:20;;;;;;;29.67;15.00;;;1.20;92.10;;;;;;5029610;28;20189;-86
2021/03/21 08:42:49;;;;;;;38.63;16.07;;;-0.60;91.10;;;;;;5028763;28;20694;-87
2021/03/21 08:45:32;;;;;;;35.77;15.47;;;1.20;92.20;;;;;;5032954;28;20269;-87
2021/03/21 08:48:17;;;;;;;46.47;17.10;;;-0.50;90.90;;;;;;5032147;28;20184;-88
2021/03/21 08:50:54;;;;;;;36.17;15.30;;;-0.50;90.70;;;;;;5025511;28;20174;-87
2021/03/21 08:53:26;;;;;;;38.70;16.50;;;-0.50;90.70;;;;;;5031711;28;20214;-86
2021/03/21 08:56:13;;;;;;;32.63;13.40;;;-0.30;90.60;;;;;;5032612;28;20217;-85
2021/03/21 08:58:40;;;;;;;31.83;15.57;;;-0.30;90.30;;;;;;5033190;28;20206;-87
2021/03/21 09:01:16;;;;;;;28.27;13.77;;;1.40;90.80;;;;;;5031422;28;20284;-88
2021/03/21 09:03:43;;;;;;;25.97;10.90;;;-0.20;89.10;;;;;;5030749;28;20796;-89
2021/03/21 09:06:33;;;;;;;30.13;15.23;;;1.70;89.10;;;;;;5033362;28;20257;-88
2021/03/21 09:09:33;;;;;;;26.77;11.93;;;0.00;88.10;;;;;;5032229;28;20202;-90
2021/03/21 09:12:20;;;;;;;32.77;15.17;;;-0.10;87.90;;;;;;5024798;28;20211;-86
2021/03/21 09:14:46;;;;;;;25.00;11.10;;;0.00;89.00;;;;;;5032040;28;20289;-91
2021/03/21 09:17:25;;;;;;;30.03;13.07;;;1.60;88.50;;;;;;5033677;28;20300;-90
2021/03/21 09:19:58;;;;;;;31.00;13.97;;;0.10;86.50;;;;;;5033189;28;20194;-90
2021/03/21 09:22:37;;;;;;;24.60;11.63;;;0.10;87.40;;;;;;5031020;28;20197;-92
2021/03/21 09:25:24;;;;;;;24.10;8.37;;;0.20;88.10;;;;;;5030431;28;20178;-92
2021/03/21 09:27:50;;;;;;;27.07;12.40;;;0.30;85.60;;;;;;5030892;28;20192;-90
2021/03/21 09:30:19;;;;;;;21.60;10.13;;;1.80;87.70;;;;;;5031065;28;20328;-88
2021/03/21 09:32:51;;;;;;;27.43;12.43;;;0.30;85.90;;;;;;5032098;28;20259;-91
2021/03/21 09:35:31;;;;;;;21.70;9.53;;;0.90;86.90;;;;;;5032248;28;20192;-90
2021/03/21 09:38:01;;;;;;;25.90;11.63;;;0.50;86.20;;;;;;5031672;28;20277;-90
2021/03/21 09:40:34;;;;;;;22.30;10.60;;;0.80;86.50;;;;;;5032715;28;20188;-89
2021/03/21 09:43:01;;;;;;;22.30;9.73;;;2.10;88.90;;;;;;5032794;28;20173;-91
2021/03/21 09:45:27;;;;;;;14.13;7.70;;;2.60;89.10;;;;;;5033398;28;20194;-92
2021/03/21 09:47:57;;;;;;;19.47;9.60;;;2.70;89.20;;;;;;5033327;28;20192;-93
2021/03/21 09:50:53;;;;;;;18.90;8.30;;;1.10;85.10;;;;;;5047287;28;20634;-88
2021/03/21 09:53:36;;;;;;;18.50;7.43;;;1.10;84.10;;;;;;5050589;28;20545;-94
2021/03/21 09:56:28;;;;;;;17.97;7.23;;;1.10;82.70;;;;;;5034598;28;20188;-91
2021/03/21 09:58:59;;;;;;;16.50;8.30;;;1.00;83.80;;;;;;5034950;28;20197;-94
2021/03/21 10:01:25;;;;;;;20.23;8.50;;;3.00;88.10;;;;;;5037212;28;20188;-92
2021/03/21 10:04:12;;;;;;;17.33;8.57;;;0.80;86.20;;;;;;5033558;28;20242;-91
2021/03/21 10:06:40;;;;;;;17.07;8.93;;;0.80;87.10;;;;;;5032810;28;20195;-93
2021/03/21 10:09:21;;;;;;;20.23;8.70;;;3.00;88.00;;;;;;5030732;28;20184;-88
2021/03/21 10:12:10;;;;;;;20.73;8.70;;;2.20;84.80;;;;;;5047341;28;20552;-89
2021/03/21 10:14:36;;;;;;;19.43;8.40;;;1.20;82.30;;;;;;5030534;28;20234;-91
2021/03/21 10:17:22;;;;;;;19.27;7.63;;;1.10;81.90;;;;;;5030329;28;20210;-91
2021/03/21 10:19:48;;;;;;;18.73;6.83;;;2.70;83.50;;;;;;5012306;28;20202;-91
2021/03/21 10:22:28;;;;;;;10.80;5.17;;;3.30;84.70;;;;;;5031813;28;20238;-94
2021/03/21 10:24:55;;;;;;;13.70;6.20;;;1.10;84.30;;;;;;5037500;28;20189;-92
2021/03/21 10:27:25;;;;;;;11.90;6.23;;;2.00;86.60;;;;;;5031866;28;20312;-91
2021/03/21 10:30:01;;;;;;;18.50;8.70;;;1.10;87.50;;;;;;5032606;28;20188;-89
2021/03/21 10:32:29;;;;;;;23.30;7.10;;;2.40;88.30;;;;;;5030654;28;20188;-94
2021/03/21 10:34:56;;;;;;;15.93;7.27;;;1.50;87.90;;;;;;5034522;28;20657;-90
2021/03/21 10:37:40;;;;;;;11.87;7.30;;;1.10;88.20;;;;;;5029821;28;20208;-91
2021/03/21 10:40:13;;;;;;;12.87;7.03;;;1.10;84.40;;;;;;5032863;28;20189;-92
2021/03/21 10:42:49;;;;;;;16.27;7.57;;;1.20;83.40;;;;;;5049451;28;20318;-92
2021/03/21 10:45:32;;;;;;;16.40;7.53;;;2.90;84.00;;;;;;5035230;28;20690;-91
2021/03/21 10:47:59;;;;;;;17.10;8.17;;;1.20;82.50;;;;;;5032307;28;20616;-91
2021/03/21 10:50:28;;;;;;;9.33;5.43;;;1.40;82.50;;;;;;5034400;28;20192;-93
2021/03/21 10:53:21;;;;;;;17.83;8.17;;;1.20;81.90;;;;;;5049494;28;20188;-90
2021/03/21 10:56:20;;;;;;;13.83;8.00;;;1.00;84.00;;;;;;5031406;28;20278;-88
2021/03/21 10:58:45;;;;;;;11.97;6.60;;;1.10;86.60;;;;;;5029986;28;20250;-89
2021/03/21 11:01:20;;;;;;;19.00;7.93;;;2.10;89.10;;;;;;5046596;28;20642;-86
2021/03/21 11:03:55;;;;;;;15.53;8.43;;;1.00;90.10;;;;;;5030514;28;20618;-91
2021/03/21 11:06:22;;;;;;;16.43;8.37;;;1.80;90.90;;;;;;5046506;28;20195;-90
2021/03/21 11:08:48;;;;;;;17.20;7.47;;;1.00;92.10;;;;;;5030916;28;20184;-89
2021/03/21 11:11:32;;;;;;;16.40;8.10;;;1.60;92.50;;;;;;5027476;28;20687;-92
2021/03/21 11:14:16;;;;;;;16.50;6.70;;;1.90;92.60;;;;;;5034051;28;20691;-94
2021/03/21 11:17:18;;;;;;;13.60;7.50;;;1.10;91.50;;;;;;5034448;28;20277;-92
2021/03/21 11:19:52;;;;;;;18.33;9.00;;;1.20;91.40;;;;;;5021247;28;20202;-91
2021/03/21 11:22:30;;;;;;;19.43;7.70;;;2.20;92.50;;;;;;5022888;28;20204;-92
2021/03/21 11:24:56;;;;;;;17.03;8.53;;;1.00;94.70;;;;;;5046137;28;20200;-93
2021/03/21 11:27:31;;;;;;;22.93;8.63;;;1.00;96.20;;;;;;5029109;28;20669;-91
2021/03/21 11:30:29;;;;;;;16.13;7.17;;;1.10;96.50;;;;;;5027720;28;20381;-91
2021/03/21 11:33:17;;;;;;;17.10;8.20;;;0.80;98.30;;;;;;5008451;28;20699;-93
2021/03/21 11:35:43;;;;;;;10.77;6.53;;;1.50;98.70;;;;;;5025658;28;20272;-89
2021/03/21 11:38:46;;;;;;;12.90;6.57;;;2.10;99.90;;;;;;5031063;28;20211;-88
2021/03/21 11:41:39;;;;;;;12.80;7.70;;;1.20;98.90;;;;;;4973552;28;20193;-93
2021/03/21 11:44:15;;;;;;;13.53;6.70;;;1.00;99.70;;;;;;5026652;28;20190;-88
2021/03/21 11:46:41;;;;;;;17.93;7.00;;;1.10;99.60;;;;;;5033958;28;20671;-93
2021/03/21 11:49:08;;;;;;;17.00;8.23;;;2.90;99.90;;;;;;5030111;28;20193;-89
2021/03/21 11:51:34;;;;;;;12.37;6.87;;;0.90;99.90;;;;;;5046929;28;20188;-93
2021/03/21 11:54:00;;;;;;;18.87;8.20;;;2.30;99.90;;;;;;5030788;28;20223;-86
2021/03/21 11:56:47;;;;;;;17.07;8.10;;;1.80;99.90;;;;;;5032318;28;20219;-89
2021/03/21 11:59:17;;;;;;;11.97;8.07;;;0.60;99.90;;;;;;5032275;28;20196;-96
2021/03/21 12:01:42;;;;;;;17.37;8.60;;;0.50;99.90;;;;;;5046590;28;20229;-89
2021/03/21 12:04:30;;;;;;;13.73;7.83;;;0.60;99.90;;;;;;5045798;28;20711;-90
2021/03/21 12:06:58;;;;;;;13.97;7.83;;;0.50;99.90;;;;;;5031393;28;20323;-89
2021/03/21 12:09:46;;;;;;;16.40;7.63;;;0.80;99.90;;;;;;5030902;28;20186;-89
2021/03/21 12:12:32;;;;;;;11.17;6.80;;;3.10;99.90;;;;;;5030720;28;20178;-94
2021/03/21 12:14:58;;;;;;;11.37;6.67;;;2.50;99.90;;;;;;5032220;28;20189;-90
2021/03/21 12:17:24;;;;;;;17.03;6.67;;;1.50;99.90;;;;;;5029760;28;20200;-91
2021/03/21 12:19:52;;;;;;;17.17;9.03;;;3.00;99.90;;;;;;5031442;28;20184;-90
2021/03/21 12:22:31;;;;;;;15.60;6.97;;;1.00;99.90;;;;;;5031880;28;20275;-91
2021/03/21 12:24:59;;;;;;;14.13;7.13;;;1.10;99.90;;;;;;5030177;28;20198;-91
2021/03/21 12:27:38;;;;;;;13.40;7.43;;;1.70;99.90;;;;;;5030595;28;20266;-90
2021/03/21 12:30:14;;;;;;;16.57;9.13;;;1.90;99.90;;;;;;5030830;28;20322;-91
2021/03/21 12:32:42;;;;;;;16.87;7.57;;;1.20;99.90;;;;;;5030875;28;20230;-91
2021/03/21 12:35:31;;;;;;;14.50;9.03;;;3.20;99.90;;;;;;5030318;28;20266;-90
2021/03/21 12:38:01;;;;;;;16.50;8.07;;;2.60;99.90;;;;;;5024852;28;20716;-89
2021/03/21 12:40:40;;;;;;;11.40;6.73;;;2.90;99.90;;;;;;5029871;28;20319;-92
2021/03/21 12:43:23;;;;;;;16.37;8.73;;;1.00;99.90;;;;;;5030531;28;20187;-90
2021/03/21 12:46:07;;;;;;;16.73;8.03;;;1.80;99.90;;;;;;5033367;28;20199;-89
2021/03/21 12:48:51;;;;;;;18.20;8.67;;;0.80;99.90;;;;;;5033893;28;20181;-93
2021/03/21 12:51:26;;;;;;;18.87;9.20;;;0.90;99.90;;;;;;5033833;28;20180;-92
2021/03/21 12:53:52;;;;;;;17.50;7.87;;;1.40;99.90;;;;;;5048857;28;20271;-91
2021/03/21 12:56:18;;;;;;;24.23;9.27;;;2.40;99.90;;;;;;5032002;28;20317;-89
2021/03/21 12:58:43;;;;;;;16.23;8.23;;;3.10;99.90;;;;;;5031788;28;20192;-90
2021/03/21 13:01:09;;;;;;;15.37;8.70;;;-0.10;99.90;;;;;;5045756;28;20592;-91
2021/03/21 13:03:35;;;;;;;15.20;8.27;;;2.30;99.90;;;;;;5031309;28;20224;-91
2021/03/21 13:06:03;;;;;;;18.13;8.73;;;1.80;99.90;;;;;;5031768;28;20184;-88
2021/03/21 13:08:30;;;;;;;19.90;8.40;;;1.00;99.90;;;;;;5034897;28;20263;-90
2021/03/21 13:10:58;;;;;;;20.60;8.37;;;1.10;99.90;;;;;;5035884;28;20242;-91
2021/03/21 13:13:24;;;;;;;19.00;9.30;;;3.60;99.90;;;;;;5054748;28;20208;-90
2021/03/21 13:15:52;;;;;;;51.40;26.73;;;2.10;99.90;;;;;;5035608;28;20215;-87
2021/03/21 13:18:19;;;;;;;176.80;78.50;;;0.90;99.90;;;;;;5034925;28;20196;-85
2021/03/21 13:20:47;;;;;;;271.73;110.90;;;0.60;99.90;;;;;;5045378;28;20223;-87
2021/03/21 13:23:13;;;;;;;194.40;90.30;;;1.60;99.90;;;;;;5043202;28;20188;-86
2021/03/21 13:25:39;;;;;;;753.87;333.73;;;0.60;99.90;;;;;;5048223;28;20254;-86